createdAt,value
2017-09-17T00:00:08.147Z,7.50
2017-09-17T00:02:36.391Z,7.60
2017-09-17T00:05:04.186Z,6.80
2017-09-17T00:07:31.716Z,7.30
2017-09-17T00:10:00.654Z,7.55
2017-09-17T00:12:28.160Z,7.17
2017-09-17T00:14:56.523Z,6.90
2017-09-17T00:17:24.303Z,8.38
2017-09-17T00:19:51.807Z,7.83
2017-09-17T00:22:19.777Z,7.00
2017-09-17T00:24:47.280Z,8.70
2017-09-17T00:27:15.279Z,7.00
2017-09-17T00:29:43.736Z,6.83
2017-09-17T00:32:11.271Z,6.53
2017-09-17T00:34:38.792Z,6.57
2017-09-17T00:37:06.615Z,5.90
2017-09-17T00:39:34.138Z,5.55
2017-09-17T00:42:02.592Z,6.03
2017-09-17T00:44:30.859Z,7.60
2017-09-17T00:46:59.217Z,6.30
2017-09-17T00:49:27.040Z,6.40
2017-09-17T00:51:54.535Z,6.37
2017-09-17T00:54:22.303Z,7.03
2017-09-17T00:56:49.969Z,6.53
2017-09-17T00:59:17.470Z,6.60
2017-09-17T01:01:45.279Z,5.90
2017-09-17T01:04:16.027Z,6.57
2017-09-17T01:06:43.531Z,6.33
2017-09-17T01:09:12.632Z,6.82
2017-09-17T01:11:40.131Z,6.80
2017-09-17T01:14:08.045Z,7.73
2017-09-17T01:16:36.424Z,7.65
2017-09-17T01:19:03.933Z,7.40
2017-09-17T01:21:31.471Z,9.77
2017-09-17T01:23:59.004Z,8.95
2017-09-17T01:26:26.840Z,9.37
2017-09-17T01:28:54.359Z,8.87
2017-09-17T01:31:21.889Z,8.93
2017-09-17T01:33:55.464Z,9.55
2017-09-17T01:36:23.736Z,7.55
2017-09-17T01:38:51.279Z,8.00
2017-09-17T01:41:20.479Z,8.77
2017-09-17T01:43:48.052Z,8.00
2017-09-17T01:46:15.572Z,7.57
2017-09-17T01:48:43.151Z,9.53
2017-09-17T01:51:11.135Z,7.67
2017-09-17T01:53:38.714Z,11.90
2017-09-17T01:56:06.240Z,9.10
2017-09-17T01:58:35.123Z,8.82
2017-09-17T02:01:02.668Z,9.70
2017-09-17T02:03:30.167Z,9.60
2017-09-17T02:06:02.766Z,8.37
2017-09-17T02:08:30.267Z,8.55
2017-09-17T02:10:57.827Z,9.13
2017-09-17T02:13:25.342Z,8.83
2017-09-17T02:15:53.759Z,8.87
2017-09-17T02:18:21.295Z,7.12
2017-09-17T02:20:48.844Z,8.40
2017-09-17T02:23:16.351Z,7.73
2017-09-17T02:25:44.650Z,8.10
2017-09-17T02:28:13.846Z,6.35
2017-09-17T02:30:41.355Z,6.10
2017-09-17T02:33:08.882Z,5.70
2017-09-17T02:35:36.379Z,6.93
2017-09-17T02:38:04.293Z,6.18
2017-09-17T02:40:32.948Z,5.50
2017-09-17T02:43:00.487Z,5.85
2017-09-17T02:45:28.128Z,7.57
2017-09-17T02:47:55.935Z,7.37
2017-09-17T02:50:27.884Z,6.53
2017-09-17T02:52:55.379Z,7.30
2017-09-17T02:55:23.696Z,6.25
2017-09-17T02:57:51.950Z,6.70
2017-09-17T03:00:19.459Z,7.00
2017-09-17T03:02:47.002Z,8.13
2017-09-17T03:05:18.930Z,7.95
2017-09-17T03:07:47.403Z,8.25
2017-09-17T03:10:15.714Z,8.50
2017-09-17T03:12:43.227Z,8.70
2017-09-17T03:15:12.459Z,6.90
2017-09-17T03:17:40.015Z,8.00
2017-09-17T03:20:07.540Z,9.17
2017-09-17T03:22:36.800Z,7.10
2017-09-17T03:25:04.334Z,8.03
2017-09-17T03:27:31.843Z,7.40
2017-09-17T03:29:59.389Z,7.57
2017-09-17T03:32:27.364Z,8.85
2017-09-17T03:34:56.720Z,6.62
2017-09-17T03:37:24.223Z,7.18
2017-09-17T03:39:51.744Z,5.50
2017-09-17T03:42:23.806Z,8.10
2017-09-17T03:44:51.300Z,7.47
2017-09-17T03:47:18.858Z,7.77
2017-09-17T03:49:46.395Z,6.77
2017-09-17T03:52:13.917Z,6.74
2017-09-17T03:54:41.450Z,6.80
2017-09-17T03:57:09.278Z,6.62
2017-09-17T03:59:39.759Z,7.20
2017-09-17T04:02:07.324Z,6.70
2017-09-17T04:04:34.819Z,7.90
2017-09-17T04:07:06.947Z,8.35
2017-09-17T04:09:34.667Z,7.93
2017-09-17T04:12:02.161Z,8.07
2017-09-17T04:14:30.484Z,11.60
2017-09-17T04:16:58.000Z,8.63
2017-09-17T04:19:25.551Z,7.72
2017-09-17T04:21:58.979Z,8.98
2017-09-17T04:24:26.483Z,9.40
2017-09-17T04:26:54.816Z,9.20
2017-09-17T04:29:22.611Z,8.87
2017-09-17T04:31:50.194Z,8.33
2017-09-17T04:34:17.963Z,9.80
2017-09-17T04:36:49.887Z,9.77
2017-09-17T04:39:17.580Z,8.90
2017-09-17T04:41:46.641Z,8.70
2017-09-17T04:44:14.144Z,8.20
2017-09-17T04:46:42.418Z,10.30
2017-09-17T04:49:10.759Z,9.87
2017-09-17T04:51:39.166Z,8.95
2017-09-17T04:54:06.679Z,8.40
2017-09-17T04:56:34.295Z,8.07
2017-09-17T04:59:01.835Z,8.23
2017-09-17T05:01:29.807Z,8.98
2017-09-17T05:03:58.602Z,7.90
2017-09-17T05:06:26.126Z,9.00
2017-09-17T05:08:53.710Z,8.73
2017-09-17T05:11:21.475Z,8.63
2017-09-17T05:13:49.055Z,9.87
2017-09-17T05:16:16.875Z,8.82
2017-09-17T05:18:44.380Z,9.32
2017-09-17T05:21:13.065Z,8.47
2017-09-17T05:23:41.595Z,9.30
2017-09-17T05:26:10.098Z,8.73
2017-09-17T05:28:37.667Z,8.57
2017-09-17T05:31:06.089Z,9.33
2017-09-17T05:33:34.400Z,8.73
2017-09-17T05:36:01.903Z,8.87
2017-09-17T05:38:29.751Z,9.10
2017-09-17T05:40:57.307Z,11.50
2017-09-17T05:43:25.742Z,9.80
2017-09-17T05:45:53.245Z,10.30
2017-09-17T05:48:21.595Z,10.70
2017-09-17T05:50:50.037Z,10.63
2017-09-17T05:53:18.308Z,10.57
2017-09-17T05:55:46.634Z,14.33
2017-09-17T05:58:15.070Z,10.82
2017-09-17T06:00:43.347Z,10.60
2017-09-17T06:03:10.900Z,9.77
2017-09-17T06:05:40.100Z,9.50
2017-09-17T06:08:07.608Z,10.60
2017-09-17T06:10:38.911Z,12.07
2017-09-17T06:13:06.410Z,10.40
2017-09-17T06:15:34.519Z,10.15
2017-09-17T06:18:02.059Z,10.80
2017-09-17T06:20:29.623Z,10.00
2017-09-17T06:22:57.231Z,10.50
2017-09-17T06:25:24.747Z,11.40
2017-09-17T06:27:54.599Z,9.87
2017-09-17T06:30:22.108Z,11.70
2017-09-17T06:32:49.740Z,10.30
2017-09-17T06:35:18.963Z,10.02
2017-09-17T06:37:46.942Z,10.30
2017-09-17T06:40:17.461Z,9.52
2017-09-17T06:42:45.467Z,9.93
2017-09-17T06:45:14.191Z,11.05
2017-09-17T06:47:41.704Z,10.10
2017-09-17T06:50:10.009Z,9.20
2017-09-17T06:52:37.803Z,9.88
2017-09-17T06:55:09.541Z,9.65
2017-09-17T06:57:44.058Z,8.50
2017-09-17T07:00:12.410Z,8.90
2017-09-17T07:02:39.916Z,7.90
2017-09-17T07:05:07.444Z,8.52
2017-09-17T07:07:35.391Z,7.93
2017-09-17T07:10:08.726Z,8.52
2017-09-17T07:12:36.232Z,7.40
2017-09-17T07:15:04.328Z,7.47
2017-09-17T07:17:32.640Z,7.37
2017-09-17T07:20:00.399Z,6.80
2017-09-17T07:22:28.879Z,6.13
2017-09-17T07:24:56.819Z,6.30
2017-09-17T07:27:24.367Z,6.05
2017-09-17T07:29:51.943Z,6.63
2017-09-17T07:32:19.815Z,6.20
2017-09-17T07:34:47.403Z,7.72
2017-09-17T07:37:14.923Z,7.37
2017-09-17T07:39:42.864Z,7.30
2017-09-17T07:42:10.359Z,6.27
2017-09-17T07:44:37.907Z,6.83
2017-09-17T07:47:05.420Z,6.43
2017-09-17T07:49:32.920Z,7.40
2017-09-17T07:52:00.509Z,6.60
2017-09-17T07:54:28.019Z,7.13
2017-09-17T07:56:56.484Z,7.10
2017-09-17T07:59:24.031Z,6.60
2017-09-17T08:01:52.022Z,7.40
2017-09-17T08:04:19.610Z,7.30
2017-09-17T08:06:47.879Z,6.82
2017-09-17T08:09:16.561Z,6.47
2017-09-17T08:11:48.675Z,7.05
2017-09-17T08:14:16.991Z,6.50
2017-09-17T08:16:44.540Z,6.57
2017-09-17T08:19:12.045Z,5.20
2017-09-17T08:21:41.259Z,5.68
2017-09-17T08:24:08.796Z,5.63
2017-09-17T08:26:41.071Z,5.70
2017-09-17T08:29:08.576Z,5.00
2017-09-17T08:31:36.113Z,4.30
2017-09-17T08:34:03.778Z,5.60
2017-09-17T08:36:31.822Z,4.77
2017-09-17T08:38:59.579Z,3.43
2017-09-17T08:41:27.094Z,4.50
2017-09-17T08:43:55.114Z,5.22
2017-09-17T08:46:22.621Z,4.10
2017-09-17T08:48:50.132Z,4.23
2017-09-17T08:51:17.732Z,5.10
2017-09-17T08:53:45.366Z,6.30
2017-09-17T08:56:12.880Z,4.43
2017-09-17T08:58:40.448Z,6.05
2017-09-17T09:01:08.860Z,5.66
2017-09-17T09:03:36.382Z,4.80
2017-09-17T09:06:05.607Z,5.80
2017-09-17T09:08:33.551Z,4.80
2017-09-17T09:11:01.097Z,4.47
2017-09-17T09:13:29.831Z,4.90
2017-09-17T09:15:58.098Z,4.72
2017-09-17T09:18:25.642Z,4.93
2017-09-17T09:20:53.429Z,4.30
2017-09-17T09:23:20.943Z,14.37
2017-09-17T09:25:49.284Z,5.03
2017-09-17T09:28:17.035Z,4.37
2017-09-17T09:30:44.539Z,4.28
2017-09-17T09:33:12.090Z,3.30
2017-09-17T09:35:39.606Z,4.37
2017-09-17T09:38:07.447Z,3.73
2017-09-17T09:40:35.223Z,3.70
2017-09-17T09:43:06.086Z,3.87
2017-09-17T09:45:33.602Z,3.53
2017-09-17T09:48:01.928Z,3.62
2017-09-17T09:50:29.486Z,3.80
2017-09-17T09:52:57.001Z,3.53
2017-09-17T09:55:24.537Z,4.17
2017-09-17T09:57:59.218Z,3.20
2017-09-17T10:00:26.736Z,3.80
2017-09-17T10:02:55.002Z,3.55
2017-09-17T10:05:23.319Z,3.50
2017-09-17T10:07:51.083Z,4.45
2017-09-17T10:10:18.633Z,3.93
2017-09-17T10:12:47.189Z,3.90
2017-09-17T10:15:14.979Z,4.25
2017-09-17T10:17:42.520Z,3.67
2017-09-17T10:20:10.301Z,3.78
2017-09-17T10:22:37.858Z,3.80
2017-09-17T10:25:05.417Z,3.07
2017-09-17T10:27:32.943Z,3.83
2017-09-17T10:30:01.270Z,4.13
2017-09-17T10:32:29.299Z,3.37
2017-09-17T10:34:56.839Z,3.12
2017-09-17T10:37:24.952Z,4.17
2017-09-17T10:39:52.506Z,3.07
2017-09-17T10:42:20.346Z,3.12
2017-09-17T10:44:48.532Z,15.77
2017-09-17T10:47:16.850Z,4.87
2017-09-17T10:49:44.359Z,5.73
2017-09-17T10:52:13.615Z,4.20
2017-09-17T10:54:41.192Z,3.30
2017-09-17T10:57:08.734Z,2.77
2017-09-17T10:59:36.272Z,3.10
2017-09-17T11:02:03.846Z,3.17
2017-09-17T11:04:32.273Z,2.92
2017-09-17T11:06:59.801Z,3.40
2017-09-17T11:09:27.343Z,3.20
2017-09-17T11:11:54.909Z,2.42
2017-09-17T11:14:22.436Z,3.85
2017-09-17T11:16:50.037Z,4.07
2017-09-17T11:19:17.595Z,3.28
2017-09-17T11:21:45.937Z,2.90
2017-09-17T11:24:13.572Z,3.10
2017-09-17T11:26:41.102Z,3.10
2017-09-17T11:29:09.107Z,3.00
2017-09-17T11:31:36.622Z,2.60
2017-09-17T11:34:04.654Z,2.70
2017-09-17T11:36:32.371Z,2.47
2017-09-17T11:38:59.937Z,2.35
2017-09-17T11:41:27.530Z,2.20
2017-09-17T11:43:55.028Z,2.47
2017-09-17T11:46:22.568Z,3.00
2017-09-17T11:48:50.121Z,2.30
2017-09-17T11:51:18.108Z,2.57
2017-09-17T11:53:45.661Z,2.30
2017-09-17T11:56:14.249Z,14.30
2017-09-17T11:58:41.819Z,6.93
2017-09-17T12:01:09.339Z,6.07
2017-09-17T12:03:38.603Z,2.90
2017-09-17T12:06:06.124Z,2.90
2017-09-17T12:08:33.724Z,2.43
2017-09-17T12:11:01.227Z,2.13
2017-09-17T12:13:28.792Z,1.83
2017-09-17T12:16:01.267Z,2.35
2017-09-17T12:18:28.899Z,1.60
2017-09-17T12:20:58.123Z,1.00
2017-09-17T12:23:25.715Z,0.83
2017-09-17T12:25:53.488Z,1.10
2017-09-17T12:28:21.112Z,1.20
2017-09-17T12:30:52.472Z,0.90
2017-09-17T12:33:20.002Z,0.97
2017-09-17T12:35:47.499Z,1.13
2017-09-17T12:38:15.051Z,1.30
2017-09-17T12:40:42.697Z,1.17
2017-09-17T12:43:10.908Z,1.30
2017-09-17T12:45:42.437Z,0.90
2017-09-17T12:48:09.995Z,0.90
2017-09-17T12:50:37.501Z,1.00
2017-09-17T12:53:05.049Z,1.25
2017-09-17T12:55:32.596Z,1.00
2017-09-17T12:58:00.171Z,1.30
2017-09-17T13:00:28.027Z,1.40
2017-09-17T13:02:56.462Z,1.00
2017-09-17T13:05:24.123Z,1.10
2017-09-17T13:07:51.628Z,1.23
2017-09-17T13:10:19.216Z,1.00
2017-09-17T13:12:47.492Z,1.00
2017-09-17T13:15:15.855Z,0.93
2017-09-17T13:17:47.103Z,1.07
2017-09-17T13:20:16.302Z,1.00
2017-09-17T13:22:43.911Z,0.80
2017-09-17T13:25:11.446Z,1.20
2017-09-17T13:27:39.888Z,0.90
2017-09-17T13:30:08.386Z,1.00
2017-09-17T13:32:36.738Z,1.80
2017-09-17T13:35:05.179Z,1.33
2017-09-17T13:37:32.732Z,1.87
2017-09-17T13:40:00.539Z,1.80
2017-09-17T13:42:28.044Z,1.27
2017-09-17T13:44:55.605Z,1.73
2017-09-17T13:47:25.110Z,1.30
2017-09-17T13:49:52.662Z,1.00
2017-09-17T13:52:20.967Z,1.47
2017-09-17T13:54:49.669Z,1.10
2017-09-17T13:57:17.212Z,0.90
2017-09-17T13:59:51.331Z,1.80
2017-09-17T14:02:46.111Z,1.00
2017-09-17T14:05:19.343Z,1.97
2017-09-17T14:07:46.887Z,1.50
2017-09-17T14:10:15.662Z,1.25
2017-09-17T14:12:43.656Z,1.33
2017-09-17T14:15:11.159Z,2.30
2017-09-17T14:17:39.720Z,1.48
2017-09-17T14:20:08.038Z,1.92
2017-09-17T14:22:35.617Z,1.30
2017-09-17T14:25:03.703Z,1.60
2017-09-17T14:27:31.527Z,1.30
2017-09-17T14:29:59.316Z,1.30
2017-09-17T14:32:30.595Z,1.37
2017-09-17T14:34:58.875Z,1.52
2017-09-17T14:37:26.388Z,1.17
2017-09-17T14:39:54.285Z,1.10
2017-09-17T14:42:22.017Z,1.40
2017-09-17T14:44:49.665Z,1.20
2017-09-17T14:47:22.250Z,1.00
2017-09-17T14:49:49.779Z,1.37
2017-09-17T14:52:18.999Z,1.05
2017-09-17T14:54:46.558Z,1.30
2017-09-17T14:57:14.379Z,1.53
2017-09-17T14:59:41.939Z,1.30
2017-09-17T15:02:12.726Z,1.53
2017-09-17T15:04:40.260Z,1.70
2017-09-17T15:07:08.579Z,1.73
2017-09-17T15:09:36.121Z,1.30
2017-09-17T15:12:03.710Z,1.87
2017-09-17T15:14:31.244Z,1.40
2017-09-17T15:16:59.009Z,1.30
2017-09-17T15:19:27.200Z,1.70
2017-09-17T15:21:55.156Z,1.17
2017-09-17T15:24:22.754Z,1.80
2017-09-17T15:26:50.288Z,1.25
2017-09-17T15:29:17.828Z,1.33
2017-09-17T15:31:46.835Z,1.20
2017-09-17T15:34:14.371Z,1.33
2017-09-17T15:36:41.978Z,1.37
2017-09-17T15:39:09.495Z,1.40
2017-09-17T15:41:37.027Z,1.58
2017-09-17T15:44:06.267Z,1.20
2017-09-17T15:46:33.765Z,1.07
2017-09-17T15:49:01.396Z,1.40
2017-09-17T15:51:30.622Z,1.50
2017-09-17T15:53:58.945Z,1.40
2017-09-17T15:56:26.512Z,1.00
2017-09-17T15:58:55.311Z,1.48
2017-09-17T16:01:22.858Z,1.57
2017-09-17T16:03:50.369Z,1.40
2017-09-17T16:06:17.980Z,1.40
2017-09-17T16:08:45.523Z,2.40
2017-09-17T16:11:13.880Z,1.45
2017-09-17T16:13:42.163Z,1.87
2017-09-17T16:16:09.679Z,1.58
2017-09-17T16:18:40.779Z,1.23
2017-09-17T16:21:09.144Z,1.55
2017-09-17T16:23:36.902Z,1.67
2017-09-17T16:26:04.444Z,1.30
2017-09-17T16:28:31.983Z,1.10
2017-09-17T16:30:59.483Z,1.85
2017-09-17T16:33:27.701Z,1.50
2017-09-17T16:35:55.196Z,2.00
2017-09-17T16:38:23.813Z,1.90
2017-09-17T16:40:51.327Z,2.20
2017-09-17T16:43:18.842Z,1.57
2017-09-17T16:45:48.051Z,2.67
2017-09-17T16:48:15.584Z,2.17
2017-09-17T16:50:43.130Z,1.52
2017-09-17T16:53:12.351Z,1.83
2017-09-17T16:55:39.892Z,2.30
2017-09-17T16:58:07.628Z,2.73
2017-09-17T17:00:35.203Z,1.50
2017-09-17T17:03:02.757Z,1.80
2017-09-17T17:05:30.904Z,1.55
2017-09-17T17:07:58.447Z,2.72
2017-09-17T17:10:25.986Z,3.00
2017-09-17T17:12:54.035Z,2.77
2017-09-17T17:15:21.563Z,2.20
2017-09-17T17:17:49.689Z,1.90
2017-09-17T17:20:17.264Z,2.47
2017-09-17T17:22:45.108Z,2.10
2017-09-17T17:25:12.777Z,2.40
2017-09-17T17:27:40.659Z,2.10
2017-09-17T17:30:08.356Z,2.00
2017-09-17T17:32:40.179Z,2.07
2017-09-17T17:35:07.742Z,2.30
2017-09-17T17:37:35.287Z,2.47
2017-09-17T17:40:03.174Z,2.80
2017-09-17T17:42:30.737Z,2.00
2017-09-17T17:44:58.756Z,3.12
2017-09-17T17:47:27.064Z,3.13
2017-09-17T17:49:59.130Z,6.30
2017-09-17T17:52:26.874Z,8.50
2017-09-17T17:54:54.388Z,4.97
2017-09-17T17:57:21.893Z,3.20
2017-09-17T17:59:49.670Z,3.00
2017-09-17T18:02:18.168Z,2.40
2017-09-17T18:04:45.721Z,3.53
2017-09-17T18:07:13.471Z,2.80
2017-09-17T18:09:41.089Z,3.13
2017-09-17T18:12:08.794Z,2.70
2017-09-17T18:14:36.340Z,5.25
2017-09-17T18:17:03.916Z,3.50
2017-09-17T18:19:32.912Z,4.30
2017-09-17T18:22:00.568Z,6.47
2017-09-17T18:24:28.107Z,5.57
2017-09-17T18:26:56.540Z,4.93
2017-09-17T18:29:24.087Z,5.50
2017-09-17T18:31:51.691Z,5.57
2017-09-17T18:34:19.514Z,6.70
2017-09-17T18:36:51.055Z,5.80
2017-09-17T18:39:18.560Z,5.20
2017-09-17T18:41:46.442Z,5.28
2017-09-17T18:44:14.891Z,3.42
2017-09-17T18:46:42.440Z,4.15
2017-09-17T18:49:10.789Z,4.60
2017-09-17T18:51:38.360Z,4.67
2017-09-17T18:54:06.315Z,6.60
2017-09-17T18:56:33.880Z,5.00
2017-09-17T18:59:01.420Z,6.00
2017-09-17T19:01:30.620Z,5.00
2017-09-17T19:03:58.496Z,5.60
2017-09-17T19:06:26.000Z,5.37
2017-09-17T19:08:54.491Z,5.45
2017-09-17T19:11:22.777Z,5.43
2017-09-17T19:13:54.068Z,5.20
2017-09-17T19:16:21.603Z,4.97
2017-09-17T19:18:49.251Z,5.37
2017-09-17T19:21:17.096Z,4.83
2017-09-17T19:23:44.619Z,4.85
2017-09-17T19:26:12.123Z,4.67
2017-09-17T19:28:40.456Z,5.00
2017-09-17T19:31:08.821Z,4.50
2017-09-17T19:33:36.888Z,6.10
2017-09-17T19:36:04.972Z,5.18
2017-09-17T19:38:33.178Z,4.60
2017-09-17T19:41:01.462Z,4.95
2017-09-17T19:43:29.037Z,4.50
2017-09-17T19:45:57.519Z,5.23
2017-09-17T19:48:25.031Z,4.82
2017-09-17T19:50:53.391Z,4.87
2017-09-17T19:53:20.942Z,4.90
2017-09-17T19:55:48.944Z,5.07
2017-09-17T19:58:17.055Z,5.30
2017-09-17T20:00:45.333Z,5.50
2017-09-17T20:03:12.920Z,5.50
2017-09-17T20:05:40.487Z,4.50
2017-09-17T20:08:07.987Z,4.75
2017-09-17T20:10:36.463Z,5.43
2017-09-17T20:13:04.001Z,4.93
2017-09-17T20:15:31.512Z,5.47
2017-09-17T20:17:59.039Z,5.37
2017-09-17T20:20:26.552Z,4.33
2017-09-17T20:22:57.991Z,4.90
2017-09-17T20:25:26.025Z,4.97
2017-09-17T20:27:53.644Z,5.90
2017-09-17T20:30:21.200Z,6.15
2017-09-17T20:32:48.711Z,5.40
2017-09-17T20:35:16.228Z,6.83
2017-09-17T20:37:48.913Z,5.60
2017-09-17T20:40:16.553Z,5.07
2017-09-17T20:42:45.016Z,5.65
2017-09-17T20:45:12.855Z,5.77
2017-09-17T20:47:41.166Z,6.80
2017-09-17T20:50:08.667Z,7.77
2017-09-17T20:52:36.194Z,7.17
2017-09-17T20:55:04.507Z,6.95
2017-09-17T20:57:32.066Z,6.50
2017-09-17T21:00:00.344Z,6.47
2017-09-17T21:02:27.895Z,5.30
2017-09-17T21:04:55.427Z,5.60
2017-09-17T21:07:23.335Z,6.30
2017-09-17T21:09:50.983Z,5.30
2017-09-17T21:12:18.491Z,6.47
2017-09-17T21:14:46.015Z,5.87
2017-09-17T21:17:13.547Z,5.70
2017-09-17T21:19:41.064Z,5.50
2017-09-17T21:22:08.614Z,5.50
2017-09-17T21:24:39.471Z,5.80
2017-09-17T21:27:07.557Z,6.76
2017-09-17T21:29:35.065Z,7.10
2017-09-17T21:32:02.602Z,6.27
2017-09-17T21:34:30.236Z,6.43
2017-09-17T21:36:57.774Z,6.57
2017-09-17T21:39:30.565Z,6.22
2017-09-17T21:41:58.080Z,8.40
2017-09-17T21:44:25.675Z,8.30
2017-09-17T21:46:53.175Z,7.33
2017-09-17T21:49:21.362Z,7.15
2017-09-17T21:51:49.043Z,6.73
2017-09-17T21:54:20.635Z,6.77
2017-09-17T21:56:48.131Z,7.33
2017-09-17T21:59:16.236Z,6.90
2017-09-17T22:01:44.542Z,7.12
2017-09-17T22:04:12.047Z,7.63
2017-09-17T22:06:39.556Z,7.97
2017-09-17T22:09:11.645Z,7.07
2017-09-17T22:11:39.155Z,7.43
2017-09-17T22:14:06.723Z,6.28
2017-09-17T22:16:34.288Z,7.75
2017-09-17T22:19:01.828Z,7.73
2017-09-17T22:21:29.330Z,6.90
2017-09-17T22:23:57.767Z,5.93
2017-09-17T22:26:25.494Z,6.32
2017-09-17T22:28:52.992Z,5.70
2017-09-17T22:31:20.491Z,7.03
2017-09-17T22:33:48.539Z,6.32
2017-09-17T22:36:16.560Z,6.50
2017-09-17T22:38:44.993Z,6.50
2017-09-17T22:41:12.487Z,5.90
2017-09-17T22:43:40.048Z,5.00
2017-09-17T22:46:07.587Z,5.63
2017-09-17T22:48:35.089Z,6.05
2017-09-17T22:51:02.634Z,6.85
2017-09-17T22:53:30.133Z,6.10
2017-09-17T22:55:59.004Z,7.72
2017-09-17T22:58:27.062Z,6.60
2017-09-17T23:00:54.608Z,6.03
2017-09-17T23:03:23.567Z,5.97
2017-09-17T23:05:51.107Z,6.40
2017-09-17T23:08:18.611Z,6.37
2017-09-17T23:10:49.431Z,6.60
2017-09-17T23:13:17.588Z,5.95
2017-09-17T23:15:45.448Z,5.62
2017-09-17T23:18:12.947Z,5.50
2017-09-17T23:20:40.439Z,5.33
2017-09-17T23:23:08.756Z,5.80
2017-09-17T23:25:37.349Z,5.32
2017-09-17T23:28:04.863Z,5.28
2017-09-17T23:30:32.383Z,5.33
2017-09-17T23:33:00.091Z,7.10
2017-09-17T23:35:28.384Z,5.47
2017-09-17T23:37:56.866Z,5.25
2017-09-17T23:40:24.582Z,5.10
2017-09-17T23:42:52.079Z,5.53
2017-09-17T23:45:19.583Z,5.70
2017-09-17T23:47:47.119Z,5.70
2017-09-17T23:50:16.347Z,7.10
2017-09-17T23:52:44.757Z,5.50
2017-09-17T23:55:13.023Z,6.00
2017-09-17T23:57:40.571Z,6.37
